sensor_id;sensor_type;location;lat;lon;timestamp;pressure;altitude;pressure_sealevel;temperature;humidity
61761;BME280;47664;51.660;-0.100;2023-02-15T00:01:54;102032.56;;;4.17;61.22
61761;BME280;47664;51.660;-0.100;2023-02-15T00:04:27;102027.65;;;4.55;61.05
61761;BME280;47664;51.660;-0.100;2023-02-15T00:07:00;102027.53;;;4.07;60.64
61761;BME280;47664;51.660;-0.100;2023-02-15T00:09:32;102019.00;;;4.72;61.25
61761;BME280;47664;51.660;-0.100;2023-02-15T00:12:04;102013.40;;;4.24;61.11
61761;BME280;47664;51.660;-0.100;2023-02-15T00:14:36;102007.58;;;4.47;61.28
61761;BME280;47664;51.660;-0.100;2023-02-15T00:17:09;102001.92;;;4.16;62.16
61761;BME280;47664;51.660;-0.100;2023-02-15T00:19:40;101998.67;;;4.42;62.16
61761;BME280;47664;51.660;-0.100;2023-02-15T00:22:13;101999.18;;;4.77;61.59
61761;BME280;47664;51.660;-0.100;2023-02-15T00:24:45;101995.53;;;4.94;61.04
61761;BME280;47664;51.660;-0.100;2023-02-15T00:27:17;101993.93;;;5.18;59.17
61761;BME280;47664;51.660;-0.100;2023-02-15T00:29:49;101980.74;;;5.54;57.56
61761;BME280;47664;51.660;-0.100;2023-02-15T00:32:22;101978.10;;;5.63;56.99
61761;BME280;47664;51.660;-0.100;2023-02-15T00:34:54;101977.32;;;6.07;55.88
61761;BME280;47664;51.660;-0.100;2023-02-15T00:37:26;101974.79;;;6.04;55.32
61761;BME280;47664;51.660;-0.100;2023-02-15T00:39:58;101971.64;;;5.36;55.45
61761;BME280;47664;51.660;-0.100;2023-02-15T00:42:31;101967.67;;;5.92;55.15
61761;BME280;47664;51.660;-0.100;2023-02-15T00:45:03;101955.14;;;5.33;55.07
61761;BME280;47664;51.660;-0.100;2023-02-15T00:47:35;101952.82;;;5.58;54.83
61761;BME280;47664;51.660;-0.100;2023-02-15T00:50:07;101949.76;;;5.38;54.69
61761;BME280;47664;51.660;-0.100;2023-02-15T00:52:39;101951.09;;;5.86;54.76
61761;BME280;47664;51.660;-0.100;2023-02-15T00:55:12;101945.88;;;5.67;56.79
61761;BME280;47664;51.660;-0.100;2023-02-15T00:57:44;101942.42;;;5.90;55.29
61761;BME280;47664;51.660;-0.100;2023-02-15T01:00:17;101940.67;;;5.58;55.62
61761;BME280;47664;51.660;-0.100;2023-02-15T01:02:50;101940.97;;;5.72;56.97
61761;BME280;47664;51.660;-0.100;2023-02-15T01:05:22;101936.68;;;5.95;56.05
61761;BME280;47664;51.660;-0.100;2023-02-15T01:07:54;101935.59;;;5.81;55.87
61761;BME280;47664;51.660;-0.100;2023-02-15T01:10:27;101931.72;;;6.16;55.32
61761;BME280;47664;51.660;-0.100;2023-02-15T01:13:00;101928.26;;;5.16;57.40
61761;BME280;47664;51.660;-0.100;2023-02-15T01:15:34;101932.40;;;5.87;57.66
61761;BME280;47664;51.660;-0.100;2023-02-15T01:18:06;101931.41;;;5.45;57.66
61761;BME280;47664;51.660;-0.100;2023-02-15T01:20:40;101925.67;;;6.18;56.72
61761;BME280;47664;51.660;-0.100;2023-02-15T01:23:12;101925.35;;;5.99;56.90
61761;BME280;47664;51.660;-0.100;2023-02-15T01:25:45;101926.80;;;6.28;56.70
61761;BME280;47664;51.660;-0.100;2023-02-15T01:28:16;101921.57;;;5.86;56.60
61761;BME280;47664;51.660;-0.100;2023-02-15T01:30:48;101916.67;;;6.37;56.54
61761;BME280;47664;51.660;-0.100;2023-02-15T01:33:22;101917.43;;;6.16;56.52
61761;BME280;47664;51.660;-0.100;2023-02-15T01:35:56;101913.38;;;5.61;57.10
61761;BME280;47664;51.660;-0.100;2023-02-15T01:38:28;101917.01;;;5.01;58.07
61761;BME280;47664;51.660;-0.100;2023-02-15T01:41:01;101907.28;;;4.03;58.60
61761;BME280;47664;51.660;-0.100;2023-02-15T01:43:40;101898.36;;;4.00;59.73
61761;BME280;47664;51.660;-0.100;2023-02-15T01:46:14;101895.71;;;4.40;59.65
61761;BME280;47664;51.660;-0.100;2023-02-15T01:48:51;101890.19;;;4.99;58.40
61761;BME280;47664;51.660;-0.100;2023-02-15T01:51:23;101881.15;;;5.25;57.42
61761;BME280;47664;51.660;-0.100;2023-02-15T01:53:59;101881.54;;;5.01;57.88
61761;BME280;47664;51.660;-0.100;2023-02-15T01:56:35;101877.44;;;5.27;58.91
61761;BME280;47664;51.660;-0.100;2023-02-15T01:59:08;101873.92;;;4.99;59.19
61761;BME280;47664;51.660;-0.100;2023-02-15T02:01:41;101874.26;;;5.34;59.19
61761;BME280;47664;51.660;-0.100;2023-02-15T02:04:17;101872.92;;;5.24;58.93
61761;BME280;47664;51.660;-0.100;2023-02-15T02:06:54;101868.56;;;5.60;58.32
61761;BME280;47664;51.660;-0.100;2023-02-15T02:09:26;101867.21;;;5.78;57.31
61761;BME280;47664;51.660;-0.100;2023-02-15T02:11:58;101858.83;;;5.32;57.13
61761;BME280;47664;51.660;-0.100;2023-02-15T02:14:31;101854.01;;;5.59;57.54
61761;BME280;47664;51.660;-0.100;2023-02-15T02:17:07;101846.98;;;5.32;58.21
61761;BME280;47664;51.660;-0.100;2023-02-15T02:19:56;101846.84;;;5.57;58.10
61761;BME280;47664;51.660;-0.100;2023-02-15T02:22:53;101839.94;;;5.19;58.08
61761;BME280;47664;51.660;-0.100;2023-02-15T02:26:25;101838.42;;;4.96;59.37
61761;BME280;47664;51.660;-0.100;2023-02-15T02:29:28;101833.90;;;4.51;58.13
61761;BME280;47664;51.660;-0.100;2023-02-15T02:32:17;101829.71;;;5.01;57.85
61761;BME280;47664;51.660;-0.100;2023-02-15T02:34:56;101830.55;;;5.00;57.26
61761;BME280;47664;51.660;-0.100;2023-02-15T02:37:33;101824.23;;;5.66;57.05
61761;BME280;47664;51.660;-0.100;2023-02-15T02:40:10;101818.84;;;5.60;56.16
61761;BME280;47664;51.660;-0.100;2023-02-15T02:42:48;101823.04;;;4.77;57.37
61761;BME280;47664;51.660;-0.100;2023-02-15T02:45:20;101817.36;;;4.18;58.70
61761;BME280;47664;51.660;-0.100;2023-02-15T02:47:55;101813.62;;;3.23;59.68
61761;BME280;47664;51.660;-0.100;2023-02-15T02:50:32;101818.89;;;3.45;60.41
61761;BME280;47664;51.660;-0.100;2023-02-15T02:53:05;101821.34;;;3.81;60.50
61761;BME280;47664;51.660;-0.100;2023-02-15T02:55:41;101817.76;;;3.70;61.06
61761;BME280;47664;51.660;-0.100;2023-02-15T02:58:15;101812.08;;;3.75;60.00
61761;BME280;47664;51.660;-0.100;2023-02-15T03:00:51;101808.44;;;4.36;58.92
61761;BME280;47664;51.660;-0.100;2023-02-15T03:03:26;101805.51;;;4.61;57.86
61761;BME280;47664;51.660;-0.100;2023-02-15T03:05:58;101805.66;;;3.44;58.26
61761;BME280;47664;51.660;-0.100;2023-02-15T03:08:33;101810.18;;;3.22;60.71
61761;BME280;47664;51.660;-0.100;2023-02-15T03:11:08;101813.07;;;2.91;62.02
61761;BME280;47664;51.660;-0.100;2023-02-15T03:13:40;101810.27;;;3.20;61.52
61761;BME280;47664;51.660;-0.100;2023-02-15T03:16:14;101811.75;;;2.61;62.15
61761;BME280;47664;51.660;-0.100;2023-02-15T03:18:53;101806.39;;;3.13;61.62
61761;BME280;47664;51.660;-0.100;2023-02-15T03:21:31;101802.64;;;3.28;60.29
61761;BME280;47664;51.660;-0.100;2023-02-15T03:24:06;101794.49;;;3.66;59.86
61761;BME280;47664;51.660;-0.100;2023-02-15T03:26:41;101799.82;;;4.38;59.09
61761;BME280;47664;51.660;-0.100;2023-02-15T03:29:15;101803.13;;;3.54;58.92
61761;BME280;47664;51.660;-0.100;2023-02-15T03:31:52;101793.90;;;3.17;60.85
61761;BME280;47664;51.660;-0.100;2023-02-15T03:34:26;101787.08;;;3.98;60.19
61761;BME280;47664;51.660;-0.100;2023-02-15T03:36:58;101783.71;;;4.20;58.00
61761;BME280;47664;51.660;-0.100;2023-02-15T03:39:32;101778.42;;;4.33;57.40
61761;BME280;47664;51.660;-0.100;2023-02-15T03:42:06;101773.50;;;3.74;57.84
61761;BME280;47664;51.660;-0.100;2023-02-15T03:44:43;101766.16;;;4.48;57.11
61761;BME280;47664;51.660;-0.100;2023-02-15T03:47:20;101766.04;;;4.44;56.63
61761;BME280;47664;51.660;-0.100;2023-02-15T03:49:55;101764.14;;;4.26;57.69
61761;BME280;47664;51.660;-0.100;2023-02-15T03:52:31;101759.19;;;4.46;56.94
61761;BME280;47664;51.660;-0.100;2023-02-15T03:55:04;101752.08;;;4.48;56.80
61761;BME280;47664;51.660;-0.100;2023-02-15T03:57:35;101758.21;;;5.00;57.09
61761;BME280;47664;51.660;-0.100;2023-02-15T04:00:12;101752.25;;;4.59;56.91
61761;BME280;47664;51.660;-0.100;2023-02-15T04:02:48;101747.15;;;4.98;57.01
61761;BME280;47664;51.660;-0.100;2023-02-15T04:05:24;101745.90;;;4.94;57.62
61761;BME280;47664;51.660;-0.100;2023-02-15T04:07:57;101742.19;;;4.67;56.76
61761;BME280;47664;51.660;-0.100;2023-02-15T04:10:28;101740.27;;;5.17;56.45
61761;BME280;47664;51.660;-0.100;2023-02-15T04:13:01;101739.08;;;4.40;57.10
61761;BME280;47664;51.660;-0.100;2023-02-15T04:15:33;101735.29;;;4.60;57.44
61761;BME280;47664;51.660;-0.100;2023-02-15T04:18:07;101736.88;;;3.91;58.01
61761;BME280;47664;51.660;-0.100;2023-02-15T04:20:43;101737.18;;;4.53;58.10
61761;BME280;47664;51.660;-0.100;2023-02-15T04:23:15;101735.36;;;4.47;56.70
61761;BME280;47664;51.660;-0.100;2023-02-15T04:25:48;101739.38;;;4.16;57.96
61761;BME280;47664;51.660;-0.100;2023-02-15T04:28:20;101740.03;;;3.82;59.00
61761;BME280;47664;51.660;-0.100;2023-02-15T04:30:52;101733.43;;;4.58;57.24
61761;BME280;47664;51.660;-0.100;2023-02-15T04:33:24;101735.45;;;4.10;57.16
61761;BME280;47664;51.660;-0.100;2023-02-15T04:35:57;101730.22;;;4.49;56.71
61761;BME280;47664;51.660;-0.100;2023-02-15T04:38:29;101733.05;;;4.63;56.65
61761;BME280;47664;51.660;-0.100;2023-02-15T04:41:01;101737.51;;;4.00;56.93
61761;BME280;47664;51.660;-0.100;2023-02-15T04:43:34;101733.09;;;4.32;58.04
61761;BME280;47664;51.660;-0.100;2023-02-15T04:46:06;101721.77;;;4.21;56.84
61761;BME280;47664;51.660;-0.100;2023-02-15T04:48:38;101722.11;;;4.85;57.17
61761;BME280;47664;51.660;-0.100;2023-02-15T04:51:11;101721.22;;;4.66;56.78
61761;BME280;47664;51.660;-0.100;2023-02-15T04:53:43;101720.44;;;5.07;56.37
61761;BME280;47664;51.660;-0.100;2023-02-15T04:56:15;101719.13;;;4.69;56.22
61761;BME280;47664;51.660;-0.100;2023-02-15T04:58:48;101721.86;;;4.49;57.25
61761;BME280;47664;51.660;-0.100;2023-02-15T05:01:20;101717.12;;;4.69;57.08
61761;BME280;47664;51.660;-0.100;2023-02-15T05:03:53;101719.18;;;4.33;57.62
61761;BME280;47664;51.660;-0.100;2023-02-15T05:06:24;101719.16;;;3.98;58.63
61761;BME280;47664;51.660;-0.100;2023-02-15T05:08:56;101718.90;;;3.47;59.56
61761;BME280;47664;51.660;-0.100;2023-02-15T05:11:29;101719.17;;;4.22;58.62
61761;BME280;47664;51.660;-0.100;2023-02-15T05:14:01;101718.79;;;3.24;58.60
61761;BME280;47664;51.660;-0.100;2023-02-15T05:16:33;101712.35;;;3.88;58.39
61761;BME280;47664;51.660;-0.100;2023-02-15T05:19:06;101708.26;;;4.29;57.20
61761;BME280;47664;51.660;-0.100;2023-02-15T05:21:39;101703.84;;;4.93;56.42
61761;BME280;47664;51.660;-0.100;2023-02-15T05:24:11;101704.25;;;4.83;55.94
61761;BME280;47664;51.660;-0.100;2023-02-15T05:26:43;101697.87;;;4.87;56.47
61761;BME280;47664;51.660;-0.100;2023-02-15T05:29:15;101694.48;;;4.71;57.05
61761;BME280;47664;51.660;-0.100;2023-02-15T05:31:48;101694.03;;;4.45;58.03
61761;BME280;47664;51.660;-0.100;2023-02-15T05:34:20;101697.48;;;3.86;59.20
61761;BME280;47664;51.660;-0.100;2023-02-15T05:36:54;101692.72;;;4.38;58.50
61761;BME280;47664;51.660;-0.100;2023-02-15T05:39:26;101694.61;;;4.21;58.29
61761;BME280;47664;51.660;-0.100;2023-02-15T05:41:58;101696.78;;;3.83;59.70
61761;BME280;47664;51.660;-0.100;2023-02-15T05:44:30;101691.86;;;4.22;59.04
61761;BME280;47664;51.660;-0.100;2023-02-15T05:47:02;101685.46;;;3.78;57.66
61761;BME280;47664;51.660;-0.100;2023-02-15T05:49:35;101689.65;;;4.89;57.05
61761;BME280;47664;51.660;-0.100;2023-02-15T05:52:07;101687.38;;;4.39;57.07
61761;BME280;47664;51.660;-0.100;2023-02-15T05:54:39;101689.43;;;4.42;57.06
61761;BME280;47664;51.660;-0.100;2023-02-15T05:57:12;101686.45;;;4.10;58.12
61761;BME280;47664;51.660;-0.100;2023-02-15T05:59:44;101683.89;;;4.86;57.37
61761;BME280;47664;51.660;-0.100;2023-02-15T06:02:16;101684.55;;;4.64;56.58
61761;BME280;47664;51.660;-0.100;2023-02-15T06:04:48;101685.57;;;4.93;56.54
61761;BME280;47664;51.660;-0.100;2023-02-15T06:07:20;101684.25;;;4.88;56.72
61761;BME280;47664;51.660;-0.100;2023-02-15T06:09:53;101679.40;;;4.80;56.62
61761;BME280;47664;51.660;-0.100;2023-02-15T06:12:25;101679.63;;;4.98;56.82
61761;BME280;47664;51.660;-0.100;2023-02-15T06:14:57;101682.61;;;4.48;57.23
61761;BME280;47664;51.660;-0.100;2023-02-15T06:17:29;101681.08;;;4.09;59.30
61761;BME280;47664;51.660;-0.100;2023-02-15T06:20:02;101672.45;;;3.98;59.03
61761;BME280;47664;51.660;-0.100;2023-02-15T06:22:34;101676.71;;;4.47;58.27
61761;BME280;47664;51.660;-0.100;2023-02-15T06:25:06;101678.23;;;4.77;58.16
61761;BME280;47664;51.660;-0.100;2023-02-15T06:27:40;101679.83;;;3.97;58.96
61761;BME280;47664;51.660;-0.100;2023-02-15T06:30:13;101681.06;;;4.47;58.68
61761;BME280;47664;51.660;-0.100;2023-02-15T06:32:45;101678.25;;;4.45;58.32
61761;BME280;47664;51.660;-0.100;2023-02-15T06:35:18;101677.18;;;4.74;57.49
61761;BME280;47664;51.660;-0.100;2023-02-15T06:37:50;101677.55;;;4.93;57.22
61761;BME280;47664;51.660;-0.100;2023-02-15T06:40:23;101675.53;;;4.87;58.19
61761;BME280;47664;51.660;-0.100;2023-02-15T06:42:55;101678.70;;;4.65;58.55
61761;BME280;47664;51.660;-0.100;2023-02-15T06:45:27;101680.13;;;4.89;58.13
61761;BME280;47664;51.660;-0.100;2023-02-15T06:47:59;101680.06;;;4.22;57.65
61761;BME280;47664;51.660;-0.100;2023-02-15T06:50:31;101682.28;;;5.26;58.24
61761;BME280;47664;51.660;-0.100;2023-02-15T06:53:04;101678.43;;;4.54;58.09
61761;BME280;47664;51.660;-0.100;2023-02-15T06:55:36;101679.59;;;5.52;57.65
61761;BME280;47664;51.660;-0.100;2023-02-15T06:58:07;101681.89;;;5.12;57.20
61761;BME280;47664;51.660;-0.100;2023-02-15T07:00:40;101675.45;;;5.35;57.06
61761;BME280;47664;51.660;-0.100;2023-02-15T07:03:13;101678.15;;;4.77;57.34
61761;BME280;47664;51.660;-0.100;2023-02-15T07:05:45;101677.82;;;4.56;58.21
61761;BME280;47664;51.660;-0.100;2023-02-15T07:08:18;101674.28;;;4.34;59.44
61761;BME280;47664;51.660;-0.100;2023-02-15T07:10:51;101674.11;;;4.39;59.48
61761;BME280;47664;51.660;-0.100;2023-02-15T07:13:24;101668.44;;;4.76;58.93
61761;BME280;47664;51.660;-0.100;2023-02-15T07:15:56;101671.18;;;4.89;58.85
61761;BME280;47664;51.660;-0.100;2023-02-15T07:18:29;101674.74;;;4.79;58.63
61761;BME280;47664;51.660;-0.100;2023-02-15T07:21:01;101674.39;;;4.38;58.55
61761;BME280;47664;51.660;-0.100;2023-02-15T07:23:34;101679.37;;;3.99;59.02
61761;BME280;47664;51.660;-0.100;2023-02-15T07:26:07;101681.65;;;4.23;59.50
61761;BME280;47664;51.660;-0.100;2023-02-15T07:28:39;101684.74;;;3.79;59.12
61761;BME280;47664;51.660;-0.100;2023-02-15T07:31:11;101685.76;;;3.61;59.53
61761;BME280;47664;51.660;-0.100;2023-02-15T07:33:44;101683.25;;;3.85;59.35
61761;BME280;47664;51.660;-0.100;2023-02-15T07:36:17;101683.99;;;3.58;59.97
61761;BME280;47664;51.660;-0.100;2023-02-15T07:38:50;101687.86;;;3.12;60.23
61761;BME280;47664;51.660;-0.100;2023-02-15T07:41:22;101689.87;;;3.06;61.40
61761;BME280;47664;51.660;-0.100;2023-02-15T07:43:55;101686.39;;;3.23;61.36
61761;BME280;47664;51.660;-0.100;2023-02-15T07:46:27;101686.51;;;3.62;61.05
61761;BME280;47664;51.660;-0.100;2023-02-15T07:48:59;101682.54;;;3.30;59.34
61761;BME280;47664;51.660;-0.100;2023-02-15T07:51:31;101685.63;;;3.81;58.94
61761;BME280;47664;51.660;-0.100;2023-02-15T07:54:03;101693.96;;;2.92;60.04
61761;BME280;47664;51.660;-0.100;2023-02-15T07:56:35;101699.11;;;3.69;60.72
61761;BME280;47664;51.660;-0.100;2023-02-15T07:59:07;101701.48;;;3.10;62.04
61761;BME280;47664;51.660;-0.100;2023-02-15T08:01:40;101705.47;;;3.09;62.28
61761;BME280;47664;51.660;-0.100;2023-02-15T08:04:13;101703.85;;;3.68;61.31
61761;BME280;47664;51.660;-0.100;2023-02-15T08:06:45;101700.28;;;3.70;61.70
61761;BME280;47664;51.660;-0.100;2023-02-15T08:09:18;101704.48;;;3.69;61.44
61761;BME280;47664;51.660;-0.100;2023-02-15T08:11:52;101702.34;;;4.09;61.24
61761;BME280;47664;51.660;-0.100;2023-02-15T08:14:26;101702.03;;;3.95;60.43
61761;BME280;47664;51.660;-0.100;2023-02-15T08:17:00;101710.50;;;3.39;60.72
61761;BME280;47664;51.660;-0.100;2023-02-15T08:19:33;101707.88;;;4.59;60.61
61761;BME280;47664;51.660;-0.100;2023-02-15T08:22:07;101701.90;;;4.17;59.75
61761;BME280;47664;51.660;-0.100;2023-02-15T08:24:40;101704.69;;;4.99;59.18
61761;BME280;47664;51.660;-0.100;2023-02-15T08:27:14;101703.03;;;4.61;59.10
61761;BME280;47664;51.660;-0.100;2023-02-15T08:29:46;101699.76;;;5.28;58.48
61761;BME280;47664;51.660;-0.100;2023-02-15T08:32:18;101701.39;;;5.18;58.45
61761;BME280;47664;51.660;-0.100;2023-02-15T08:34:51;101703.19;;;5.26;58.37
61761;BME280;47664;51.660;-0.100;2023-02-15T08:37:23;101701.05;;;5.36;57.90
61761;BME280;47664;51.660;-0.100;2023-02-15T08:39:56;101700.40;;;5.05;57.77
61761;BME280;47664;51.660;-0.100;2023-02-15T08:42:28;101696.28;;;5.50;57.32
61761;BME280;47664;51.660;-0.100;2023-02-15T08:45:01;101688.63;;;5.24;57.37
61761;BME280;47664;51.660;-0.100;2023-02-15T08:47:33;101681.80;;;5.60;58.03
61761;BME280;47664;51.660;-0.100;2023-02-15T08:50:06;101679.85;;;5.02;58.30
61761;BME280;47664;51.660;-0.100;2023-02-15T08:52:38;101680.06;;;5.71;57.80
61761;BME280;47664;51.660;-0.100;2023-02-15T08:55:10;101674.14;;;5.44;57.69
61761;BME280;47664;51.660;-0.100;2023-02-15T08:57:42;101671.58;;;5.89;57.58
61761;BME280;47664;51.660;-0.100;2023-02-15T09:00:15;101669.54;;;6.22;57.65
61761;BME280;47664;51.660;-0.100;2023-02-15T09:02:48;101677.05;;;6.12;57.74
61761;BME280;47664;51.660;-0.100;2023-02-15T09:05:21;101686.04;;;6.33;57.58
61761;BME280;47664;51.660;-0.100;2023-02-15T09:07:53;101691.42;;;6.15;57.68
61761;BME280;47664;51.660;-0.100;2023-02-15T09:10:25;101695.10;;;6.00;57.43
61761;BME280;47664;51.660;-0.100;2023-02-15T09:12:57;101687.34;;;6.13;56.97
61761;BME280;47664;51.660;-0.100;2023-02-15T09:15:30;101689.02;;;6.70;56.12
61761;BME280;47664;51.660;-0.100;2023-02-15T09:18:02;101688.73;;;6.28;56.00
61761;BME280;47664;51.660;-0.100;2023-02-15T09:20:35;101682.36;;;6.72;56.63
61761;BME280;47664;51.660;-0.100;2023-02-15T09:23:06;101679.76;;;6.26;57.10
61761;BME280;47664;51.660;-0.100;2023-02-15T09:25:39;101680.12;;;6.60;57.46
61761;BME280;47664;51.660;-0.100;2023-02-15T09:28:11;101679.76;;;6.57;57.71
61761;BME280;47664;51.660;-0.100;2023-02-15T09:30:43;101679.80;;;6.50;58.10
61761;BME280;47664;51.660;-0.100;2023-02-15T09:33:16;101673.63;;;6.69;57.84
61761;BME280;47664;51.660;-0.100;2023-02-15T09:35:48;101670.24;;;6.70;58.05
61761;BME280;47664;51.660;-0.100;2023-02-15T09:38:20;101666.93;;;7.04;57.76
61761;BME280;47664;51.660;-0.100;2023-02-15T09:40:58;101663.79;;;6.81;58.07
61761;BME280;47664;51.660;-0.100;2023-02-15T09:43:33;101666.65;;;6.98;58.16
61761;BME280;47664;51.660;-0.100;2023-02-15T09:46:17;101668.48;;;6.69;58.20
61761;BME280;47664;51.660;-0.100;2023-02-15T09:48:49;101671.64;;;7.28;58.67
61761;BME280;47664;51.660;-0.100;2023-02-15T09:51:38;101670.10;;;7.24;58.57
61761;BME280;47664;51.660;-0.100;2023-02-15T09:54:19;101671.53;;;7.73;58.07
61761;BME280;47664;51.660;-0.100;2023-02-15T09:56:55;101668.12;;;7.49;58.13
61761;BME280;47664;51.660;-0.100;2023-02-15T09:59:33;101670.34;;;7.73;58.00
61761;BME280;47664;51.660;-0.100;2023-02-15T10:02:15;101666.80;;;7.52;57.49
61761;BME280;47664;51.660;-0.100;2023-02-15T10:04:59;101667.99;;;8.10;57.34
61761;BME280;47664;51.660;-0.100;2023-02-15T10:07:43;101667.49;;;7.98;56.77
61761;BME280;47664;51.660;-0.100;2023-02-15T10:10:20;101671.22;;;8.00;57.00
61761;BME280;47664;51.660;-0.100;2023-02-15T10:13:02;101665.89;;;7.64;56.70
61761;BME280;47664;51.660;-0.100;2023-02-15T10:15:44;101660.95;;;8.31;56.28
61761;BME280;47664;51.660;-0.100;2023-02-15T10:18:25;101652.16;;;7.72;57.05
61761;BME280;47664;51.660;-0.100;2023-02-15T10:20:57;101654.84;;;7.43;56.92
61761;BME280;47664;51.660;-0.100;2023-02-15T10:23:43;101659.53;;;8.08;56.98
61761;BME280;47664;51.660;-0.100;2023-02-15T10:26:25;101659.27;;;8.15;56.95
61761;BME280;47664;51.660;-0.100;2023-02-15T10:29:03;101655.68;;;7.25;57.85
61761;BME280;47664;51.660;-0.100;2023-02-15T10:31:37;101650.44;;;7.86;57.61
61761;BME280;47664;51.660;-0.100;2023-02-15T10:34:16;101652.72;;;7.65;57.73
61761;BME280;47664;51.660;-0.100;2023-02-15T10:37:01;101658.51;;;7.69;58.93
61761;BME280;47664;51.660;-0.100;2023-02-15T10:39:37;101661.88;;;7.85;58.95
61761;BME280;47664;51.660;-0.100;2023-02-15T10:42:13;101659.82;;;7.36;59.36
61761;BME280;47664;51.660;-0.100;2023-02-15T10:44:55;101656.92;;;7.65;59.55
61761;BME280;47664;51.660;-0.100;2023-02-15T10:47:41;101656.21;;;7.49;59.99
61761;BME280;47664;51.660;-0.100;2023-02-15T10:50:24;101649.63;;;7.69;59.49
61761;BME280;47664;51.660;-0.100;2023-02-15T10:53:05;101651.15;;;7.55;58.84
61761;BME280;47664;51.660;-0.100;2023-02-15T10:55:45;101650.68;;;8.29;58.48
61761;BME280;47664;51.660;-0.100;2023-02-15T10:58:24;101647.80;;;8.29;58.23
61761;BME280;47664;51.660;-0.100;2023-02-15T11:01:01;101641.79;;;7.95;57.75
61761;BME280;47664;51.660;-0.100;2023-02-15T11:03:42;101638.72;;;8.50;58.04
61761;BME280;47664;51.660;-0.100;2023-02-15T11:06:15;101638.04;;;8.33;57.28
61761;BME280;47664;51.660;-0.100;2023-02-15T11:08:47;101636.60;;;8.59;56.76
61761;BME280;47664;51.660;-0.100;2023-02-15T11:11:22;101635.20;;;8.91;56.44
61761;BME280;47664;51.660;-0.100;2023-02-15T11:14:01;101628.54;;;8.88;56.42
61761;BME280;47664;51.660;-0.100;2023-02-15T11:16:37;101629.44;;;9.07;55.81
61761;BME280;47664;51.660;-0.100;2023-02-15T11:19:10;101624.76;;;8.88;56.72
61761;BME280;47664;51.660;-0.100;2023-02-15T11:21:46;101616.83;;;9.40;55.35
61761;BME280;47664;51.660;-0.100;2023-02-15T11:24:21;101610.26;;;9.74;54.63
61761;BME280;47664;51.660;-0.100;2023-02-15T11:26:57;101605.45;;;9.27;54.64
61761;BME280;47664;51.660;-0.100;2023-02-15T11:29:35;101602.18;;;9.33;55.04
61761;BME280;47664;51.660;-0.100;2023-02-15T11:32:13;101596.42;;;9.17;55.61
61761;BME280;47664;51.660;-0.100;2023-02-15T11:34:49;101592.85;;;9.69;54.86
61761;BME280;47664;51.660;-0.100;2023-02-15T11:37:21;101592.22;;;9.21;55.12
61761;BME280;47664;51.660;-0.100;2023-02-15T11:39:57;101590.06;;;8.92;55.10
61761;BME280;47664;51.660;-0.100;2023-02-15T11:42:30;101585.82;;;9.12;54.96
61761;BME280;47664;51.660;-0.100;2023-02-15T11:45:04;101585.04;;;8.61;55.51
61761;BME280;47664;51.660;-0.100;2023-02-15T11:47:39;101580.06;;;9.18;55.32
61761;BME280;47664;51.660;-0.100;2023-02-15T11:50:12;101576.36;;;8.80;55.85
61761;BME280;47664;51.660;-0.100;2023-02-15T11:52:45;101581.52;;;9.46;54.76
61761;BME280;47664;51.660;-0.100;2023-02-15T11:55:19;101583.37;;;9.24;55.29
61761;BME280;47664;51.660;-0.100;2023-02-15T11:57:53;101587.12;;;9.40;54.67
61761;BME280;47664;51.660;-0.100;2023-02-15T12:00:29;101591.90;;;9.13;54.32
61761;BME280;47664;51.660;-0.100;2023-02-15T12:03:09;101584.82;;;9.11;54.94
61761;BME280;47664;51.660;-0.100;2023-02-15T12:05:40;101576.92;;;10.13;53.03
61761;BME280;47664;51.660;-0.100;2023-02-15T12:08:15;101572.25;;;10.27;52.10
61761;BME280;47664;51.660;-0.100;2023-02-15T12:10:53;101577.49;;;10.11;52.46
61761;BME280;47664;51.660;-0.100;2023-02-15T12:13:28;101577.38;;;9.73;53.66
61761;BME280;47664;51.660;-0.100;2023-02-15T12:16:05;101563.26;;;9.83;52.32
61761;BME280;47664;51.660;-0.100;2023-02-15T12:18:36;101557.41;;;10.07;52.19
61761;BME280;47664;51.660;-0.100;2023-02-15T12:21:07;101553.35;;;10.02;51.73
61761;BME280;47664;51.660;-0.100;2023-02-15T12:23:43;101552.98;;;10.42;51.07
61761;BME280;47664;51.660;-0.100;2023-02-15T12:26:23;101549.61;;;10.53;50.79
61761;BME280;47664;51.660;-0.100;2023-02-15T12:28:57;101545.00;;;10.92;50.19
61761;BME280;47664;51.660;-0.100;2023-02-15T12:31:27;101544.54;;;10.66;50.53
61761;BME280;47664;51.660;-0.100;2023-02-15T12:34:08;101538.16;;;10.26;50.76
61761;BME280;47664;51.660;-0.100;2023-02-15T12:36:44;101537.30;;;10.92;49.84
61761;BME280;47664;51.660;-0.100;2023-02-15T12:39:19;101537.91;;;11.23;49.06
61761;BME280;47664;51.660;-0.100;2023-02-15T12:41:57;101540.93;;;11.20;49.19
61761;BME280;47664;51.660;-0.100;2023-02-15T12:44:31;101545.36;;;10.82;48.88
61761;BME280;47664;51.660;-0.100;2023-02-15T12:47:17;101542.94;;;10.62;49.25
61761;BME280;47664;51.660;-0.100;2023-02-15T12:50:05;101536.47;;;10.81;48.34
61761;BME280;47664;51.660;-0.100;2023-02-15T12:52:38;101532.72;;;11.18;48.29
61761;BME280;47664;51.660;-0.100;2023-02-15T12:55:21;101524.68;;;10.66;48.38
61761;BME280;47664;51.660;-0.100;2023-02-15T12:58:07;101517.40;;;10.84;48.33
61761;BME280;47664;51.660;-0.100;2023-02-15T13:00:39;101520.22;;;11.00;48.01
61761;BME280;47664;51.660;-0.100;2023-02-15T13:03:16;101517.51;;;10.96;48.48
61761;BME280;47664;51.660;-0.100;2023-02-15T13:05:51;101517.09;;;10.97;48.12
61761;BME280;47664;51.660;-0.100;2023-02-15T13:08:27;101513.45;;;10.97;48.07
61761;BME280;47664;51.660;-0.100;2023-02-15T13:11:02;101506.76;;;10.70;47.95
61761;BME280;47664;51.660;-0.100;2023-02-15T13:13:50;101505.94;;;11.44;47.04
61761;BME280;47664;51.660;-0.100;2023-02-15T13:16:27;101502.44;;;11.35;47.37
61761;BME280;47664;51.660;-0.100;2023-02-15T13:19:03;101501.77;;;11.21;46.65
61761;BME280;47664;51.660;-0.100;2023-02-15T13:21:38;101498.93;;;11.67;46.68
61761;BME280;47664;51.660;-0.100;2023-02-15T13:24:17;101497.94;;;11.25;47.45
61761;BME280;47664;51.660;-0.100;2023-02-15T13:26:51;101493.86;;;11.45;48.08